Kerdonis — FGH2416 — position and weather

sailwx.info

Track history (hours):
 
Tides and Currents Weather Stations Pressure Air Temp Water Temp Dewpoint Dewpoint Depression Visibility Wind Speed Wind Dir Waves Ship Positions

Kerdonis

Last reported at 2018-Jun-17 16:29 UTC. Time now 2018-Jun-24 09:17 UTC.
Position N 47°44' W 003°21'.

Length 30 m; draft 1.8 m.

Type: Passenger vessel. MMSI: 227075870.

Date/timePositionNaut miles runAvg speedWind from/ knotsBaromVisibWave heightAir tempDewpointWater temp
2018-Jun-17 16:29N 47°44' W 003°21'0 0.6
2018-Jun-17 16:01N 47°44' W 003°21'713.3
2018-Jun-17 15:30N 47°39' W 003°27'0 0.0
2018-Jun-17 15:00N 47°39' W 003°27'510.3
2018-Jun-17 14:30N 47°43' W 003°22'2 3.8
2018-Jun-17 14:00N 47°44' W 003°21'0 0.0
2018-Jun-17 13:30N 47°44' W 003°21'0 0.0
2018-Jun-17 13:00N 47°44' W 003°21'0 0.1
2018-Jun-17 12:30N 47°44' W 003°21'  
2018-Jun-10 16:24N 47°44' W 003°21'1 1.3
2018-Jun-10 16:00N 47°44' W 003°21'612.8
2018-Jun-10 15:30N 47°39' W 003°27'0 0.0
2018-Jun-10 15:00N 47°39' W 003°27'5 9.7
2018-Jun-10 14:30N 47°42' W 003°22'2 2.2
2018-Jun-10 13:30N 47°44' W 003°21'0 0.0
2018-Jun-10 13:00N 47°44' W 003°21'0 0.7
2018-Jun-10 12:30N 47°44' W 003°21'  
Track history (hours):
 
Tides and Currents Weather Stations Pressure Air Temp Water Temp Dewpoint Dewpoint Depression Visibility Wind Speed Wind Dir Waves Ship Positions

Kerdonis

Last reported at 2018-Jun-17 16:29 UTC. Time now 2018-Jun-24 09:17 UTC.
Position N 47°44' W 003°21'.

Length 30 m; draft 1.8 m.

Type: Passenger vessel. MMSI: 227075870.

Date/timePositionNaut miles runAvg speedWind from/ knotsBaromVisibWave heightAir tempDewpointWater temp
2018-Jun-17 16:29N 47°44' W 003°21'0 0.6
2018-Jun-17 16:01N 47°44' W 003°21'713.3
2018-Jun-17 15:30N 47°39' W 003°27'0 0.0
2018-Jun-17 15:00N 47°39' W 003°27'510.3
2018-Jun-17 14:30N 47°43' W 003°22'2 3.8
2018-Jun-17 14:00N 47°44' W 003°21'0 0.0
2018-Jun-17 13:30N 47°44' W 003°21'0 0.0
2018-Jun-17 13:00N 47°44' W 003°21'0 0.1
2018-Jun-17 12:30N 47°44' W 003°21'  
2018-Jun-10 16:24N 47°44' W 003°21'1 1.3
2018-Jun-10 16:00N 47°44' W 003°21'612.8
2018-Jun-10 15:30N 47°39' W 003°27'0 0.0
2018-Jun-10 15:00N 47°39' W 003°27'5 9.7
2018-Jun-10 14:30N 47°42' W 003°22'2 2.2
2018-Jun-10 13:30N 47°44' W 003°21'0 0.0
2018-Jun-10 13:00N 47°44' W 003°21'0 0.7
2018-Jun-10 12:30N 47°44' W 003°21'  

Dump ship's entire track history